Time;durP1;ratioP1;P1;durP2;ratioP2;P2;SDS_P1;SDS_P2;PMS_P1;PMS_P2;Temp;Humidity;BMP_temperature;BMP_pressure;BME280_temperature;BME280_humidity;BME280_pressure;Samples;Min_cycle;Max_cycle;Signal;HPM_P1;HPM_P2
2022/10/03 00:00:10;;;;;;;5.37;3.63;;;;;;;13.74;100.00;96274.84;4992977;28;20263;-80
2022/10/03 00:02:53;;;;;;;4.50;4.10;;;;;;;13.72;100.00;96281.97;4993183;28;20227;-80
2022/10/03 00:05:36;;;;;;;4.30;3.90;;;;;;;13.64;100.00;96269.94;4993431;28;20231;-80
2022/10/03 00:08:15;;;;;;;4.72;3.95;;;;;;;13.70;100.00;96274.38;4992833;28;20210;-80
2022/10/03 00:10:54;;;;;;;4.70;3.57;;;;;;;13.71;100.00;96277.78;4992587;28;20815;-79
2022/10/03 00:13:28;;;;;;;3.73;3.23;;;;;;;13.73;100.00;96271.44;4988191;28;20202;-79
2022/10/03 00:16:10;;;;;;;3.73;3.43;;;;;;;13.71;100.00;96272.59;4992929;28;20223;-80
2022/10/03 00:18:49;;;;;;;3.93;3.63;;;;;;;13.67;100.00;96279.13;4992787;28;20200;-80
2022/10/03 00:21:36;;;;;;;3.70;3.37;;;;;;;13.56;100.00;96282.16;4986984;28;20199;-80
2022/10/03 00:24:16;;;;;;;3.80;3.40;;;;;;;13.49;100.00;96288.03;4992049;28;20203;-79
2022/10/03 00:26:52;;;;;;;3.90;3.50;;;;;;;13.51;100.00;96292.22;4992697;28;20198;-80
2022/10/03 00:29:34;;;;;;;5.20;4.37;;;;;;;13.51;100.00;96292.22;4986778;28;20207;-80
2022/10/03 00:32:12;;;;;;;4.50;4.10;;;;;;;13.48;100.00;96293.38;4984810;28;20246;-79
2022/10/03 00:34:54;;;;;;;4.27;3.87;;;;;;;13.45;100.00;96293.75;4992273;28;20219;-79
2022/10/03 00:37:30;;;;;;;4.40;4.00;;;;;;;13.40;100.00;96301.22;4986899;28;20219;-80
2022/10/03 00:40:29;;;;;;;5.57;3.80;;;;;;;13.38;100.00;96304.00;4991778;28;20737;-80
2022/10/03 00:43:14;;;;;;;5.63;3.77;;;;;;;13.38;100.00;96298.00;4992170;28;20622;-79
2022/10/03 00:46:02;;;;;;;3.93;3.57;;;;;;;13.35;99.47;96299.16;4992140;28;20266;-80
2022/10/03 00:48:59;;;;;;;3.97;3.47;;;;;;;13.25;100.00;96301.22;4988611;28;20196;-80
2022/10/03 00:51:36;;;;;;;4.63;3.77;;;;;;;13.24;100.00;96301.38;4985345;28;20200;-80
2022/10/03 00:54:21;;;;;;;5.77;3.80;;;;;;;13.19;99.68;96308.84;4991717;28;20195;-79
2022/10/03 00:57:05;;;;;;;3.83;3.47;;;;;;;13.21;99.93;96304.31;4991738;28;20223;-80
2022/10/03 00:59:46;;;;;;;3.70;3.40;;;;;;;13.23;100.00;96318.69;4992323;28;20199;-81
2022/10/03 01:02:27;;;;;;;3.97;3.57;;;;;;;13.20;99.37;96311.28;4986160;28;20203;-80
2022/10/03 01:05:05;;;;;;;5.33;3.93;;;;;;;13.15;99.36;96316.16;4991492;28;20606;-79
2022/10/03 01:07:55;;;;;;;4.30;3.90;;;;;;;13.11;99.32;96315.66;4992102;28;20203;-79
2022/10/03 01:10:28;;;;;;;4.47;4.07;;;;;;;13.01;99.42;96317.69;4986707;28;20199;-80
2022/10/03 01:13:11;;;;;;;4.30;3.93;;;;;;;12.99;99.73;96316.25;4991595;28;20290;-80
2022/10/03 01:15:51;;;;;;;4.47;4.07;;;;;;;12.91;98.87;96324.84;4991764;28;20227;-80
2022/10/03 01:18:36;;;;;;;4.63;4.20;;;;;;;12.91;99.48;96327.44;4986462;28;20219;-80
2022/10/03 01:21:12;;;;;;;4.70;4.30;;;;;;;12.86;98.97;96321.22;4991988;28;20195;-80
2022/10/03 01:24:02;;;;;;;4.60;4.10;;;;;;;12.91;99.20;96326.63;4991740;28;20195;-79
2022/10/03 01:26:53;;;;;;;4.40;4.00;;;;;;;12.93;98.31;96328.09;4987143;28;20208;-80
2022/10/03 01:32:32;;;;;;;5.17;3.87;;;;;;;12.99;98.13;96329.97;4986357;28;20896;-80
2022/10/03 01:35:21;;;;;;;4.33;4.00;;;;;;;12.94;97.47;96329.69;4991059;28;20226;-80
2022/10/03 01:37:58;;;;;;;5.07;3.90;;;;;;;12.91;97.84;96327.44;4989786;28;20219;-80
2022/10/03 01:40:29;;;;;;;4.33;3.97;;;;;;;12.86;98.50;96331.53;4986401;28;20695;-80
2022/10/03 01:43:10;;;;;;;5.00;3.90;;;;;;;12.89;98.95;96338.97;4991729;28;20250;-80
2022/10/03 01:45:46;;;;;;;6.10;4.23;;;;;;;12.86;99.28;96337.53;4991451;28;20618;-80
2022/10/03 01:48:20;;;;;;;5.27;4.73;;;;;;;12.85;99.11;96341.06;4991964;28;20539;-80
2022/10/03 01:50:57;;;;;;;5.03;4.57;;;;;;;12.82;98.67;96345.78;4991000;28;20207;-80
2022/10/03 01:53:33;;;;;;;5.30;4.53;;;;;;;12.83;99.36;96352.56;4987076;28;20195;-80
2022/10/03 01:56:07;;;;;;;4.80;4.40;;;;;;;12.84;98.58;96351.59;4990628;28;20225;-80
2022/10/03 01:58:47;;;;;;;6.17;4.10;;;;;;;12.83;98.04;96366.28;4990835;28;20302;-80
2022/10/03 02:01:22;;;;;;;5.53;4.80;;;;;;;12.84;97.74;96361.91;4984624;28;20202;-79
2022/10/03 02:03:56;;;;;;;6.50;4.37;;;;;;;12.68;97.16;96362.81;4991042;28;20199;-80
2022/10/03 02:06:32;;;;;;;5.17;4.67;;;;;;;12.64;98.12;96370.09;4987124;28;20214;-80
2022/10/03 02:09:04;;;;;;;6.20;4.63;;;;;;;12.66;97.84;96370.75;4990504;28;20203;-80
2022/10/03 02:11:37;;;;;;;5.13;4.63;;;;;;;12.69;97.96;96380.75;4990633;28;20204;-80
2022/10/03 02:14:23;;;;;;;5.67;4.97;;;;;;;12.62;97.82;96379.00;4990162;28;20719;-80
2022/10/03 02:16:58;;;;;;;5.43;4.67;;;;;;;12.59;97.83;96379.34;4990632;28;20282;-79
2022/10/03 02:19:28;;;;;;;6.83;5.00;;;;;;;12.63;97.96;96378.84;4986600;28;20199;-80
2022/10/03 02:21:57;;;;;;;5.63;5.13;;;;;;;12.64;97.47;96367.53;4990595;28;20627;-80
2022/10/03 02:24:47;;;;;;;5.50;5.00;;;;;;;12.66;96.80;96370.75;4990535;28;20195;-81
2022/10/03 02:27:51;;;;;;;5.90;5.30;;;;;;;12.66;97.13;96375.09;4989544;28;20279;-82
2022/10/03 02:30:21;;;;;;;5.67;5.17;;;;;;;12.64;97.32;96367.53;4970182;28;20227;-82
2022/10/03 02:33:35;;;;;;;6.23;4.73;;;;;;;12.67;97.27;96366.38;4990331;28;20202;-81
2022/10/03 02:36:47;;;;;;;5.60;5.03;;;;;;;12.64;96.24;96364.94;4990045;28;20223;-80
2022/10/03 02:39:49;;;;;;;5.83;5.33;;;;;;;12.65;96.89;96363.97;4960200;28;20215;-79
2022/10/03 02:42:56;;;;;;;5.80;5.30;;;;;;;12.59;97.40;96366.41;4994164;28;20278;-80
2022/10/03 02:45:50;;;;;;;6.97;5.67;;;;;;;12.57;96.92;96373.53;4994517;28;20734;-80
2022/10/03 02:48:54;;;;;;;5.97;5.37;;;;;;;12.56;96.83;96370.13;4994723;28;20694;-81
2022/10/03 02:51:55;;;;;;;5.67;5.00;;;;;;;12.59;96.66;96380.13;4994447;28;20196;-81
2022/10/03 02:54:53;;;;;;;5.90;5.30;;;;;;;12.61;95.88;96380.78;4989535;28;20203;-81
2022/10/03 02:57:48;;;;;;;6.07;4.97;;;;;;;12.53;95.74;96374.84;4991808;28;20231;-82
2022/10/03 03:00:19;;;;;;;6.00;5.40;;;;;;;12.53;96.94;96380.00;4994788;28;20199;-81
2022/10/03 03:03:29;;;;;;;5.57;5.07;;;;;;;12.55;96.21;96383.22;4994308;28;20206;-80
2022/10/03 03:06:35;;;;;;;7.43;5.57;;;;;;;12.51;95.79;96380.16;4992604;28;20215;-80
2022/10/03 03:09:46;;;;;;;6.07;5.50;;;;;;;12.47;96.09;96381.50;4989724;28;20282;-79
2022/10/03 03:12:49;;;;;;;6.83;5.03;;;;;;;12.46;96.01;96385.06;4992638;28;20231;-79
2022/10/03 03:15:58;;;;;;;6.20;5.60;;;;;;;12.47;96.26;96386.66;4991095;28;20223;-80
2022/10/03 03:18:34;;;;;;;6.93;5.40;;;;;;;12.44;95.51;96392.16;4980988;28;20302;-80
2022/10/03 03:21:10;;;;;;;6.73;5.30;;;;;;;12.40;95.82;96391.69;4993739;28;20234;-82
2022/10/03 03:23:45;;;;;;;6.03;5.43;;;;;;;12.42;95.78;96400.06;4994609;28;20219;-82
2022/10/03 03:26:41;;;;;;;5.90;5.30;;;;;;;12.43;95.58;96396.53;4993455;28;20219;-82
2022/10/03 03:29:18;;;;;;;6.10;5.43;;;;;;;12.41;95.66;96408.78;4991037;28;20199;-82
2022/10/03 03:31:53;;;;;;;5.83;5.23;;;;;;;12.41;95.60;96410.56;4993557;28;20230;-82
2022/10/03 03:34:28;;;;;;;6.87;5.30;;;;;;;12.40;95.56;96408.97;4993642;28;20196;-82
2022/10/03 03:37:02;;;;;;;6.03;5.50;;;;;;;12.39;95.20;96410.72;4993072;28;20199;-82
2022/10/03 03:39:46;;;;;;;6.53;5.93;;;;;;;12.35;95.08;96414.63;4993729;28;20215;-81
2022/10/03 03:42:32;;;;;;;6.13;5.53;;;;;;;12.35;94.99;96418.97;4992589;28;20675;-82
2022/10/03 03:45:28;;;;;;;6.83;5.33;;;;;;;12.32;95.06;96420.13;4993042;28;20216;-82
2022/10/03 03:48:04;;;;;;;6.10;5.50;;;;;;;12.28;95.14;96421.44;4974053;28;20291;-81
2022/10/03 03:50:46;;;;;;;8.13;5.97;;;;;;;12.30;94.83;96418.69;4980644;28;20200;-82
2022/10/03 03:53:33;;;;;;;7.17;6.30;;;;;;;12.30;94.74;96418.69;4985844;28;20630;-80
2022/10/03 03:56:17;;;;;;;6.33;5.40;;;;;;;12.26;94.39;96420.00;4992496;28;20223;-79
2022/10/03 03:58:54;;;;;;;6.33;5.73;;;;;;;12.24;94.73;96419.34;4993124;28;20229;-80
2022/10/03 04:01:40;;;;;;;9.47;6.03;;;;;;;12.24;94.40;96420.16;4989005;28;20195;-80
2022/10/03 04:04:21;;;;;;;6.50;5.83;;;;;;;12.26;94.46;96432.91;4992609;28;20238;-81
2022/10/03 04:07:13;;;;;;;7.57;5.87;;;;;;;12.25;94.02;96423.53;4993368;28;20195;-80
2022/10/03 04:09:54;;;;;;;8.40;5.47;;;;;;;12.25;93.86;96428.72;4989769;28;20195;-80
2022/10/03 04:12:35;;;;;;;6.27;5.67;;;;;;;12.20;93.56;96421.44;4993004;28;20191;-80
2022/10/03 04:15:31;;;;;;;6.00;5.40;;;;;;;12.20;92.87;96424.03;4992989;28;20572;-80
2022/10/03 04:21:11;;;;;;;6.83;5.77;;;;;;;12.09;92.34;96421.81;4991739;28;20209;-81
2022/10/03 04:23:52;;;;;;;6.27;5.67;;;;;;;12.09;92.48;96421.81;4989321;28;20290;-79
2022/10/03 04:26:36;;;;;;;8.30;5.93;;;;;;;12.05;92.59;96428.28;4992303;28;20215;-79
2022/10/03 04:29:43;;;;;;;6.63;5.90;;;;;;;12.04;92.62;96429.25;4991080;28;20195;-80
2022/10/03 04:32:26;;;;;;;7.13;5.97;;;;;;;12.04;93.01;96424.06;4968037;28;20214;-79
2022/10/03 04:35:10;;;;;;;6.40;5.80;;;;;;;12.03;92.38;96420.69;4992423;28;20226;-82
2022/10/03 04:37:45;;;;;;;6.33;5.73;;;;;;;12.04;92.12;96424.88;4988209;28;20195;-83
2022/10/03 04:40:25;;;;;;;6.47;5.60;;;;;;;11.98;92.62;96425.53;4992337;28;20687;-82
2022/10/03 04:43:04;;;;;;;6.23;5.63;;;;;;;11.98;92.70;96422.94;4982771;28;20567;-82
2022/10/03 04:45:59;;;;;;;6.33;5.60;;;;;;;11.97;92.29;96426.50;4993161;28;20226;-81
2022/10/03 04:48:37;;;;;;;7.20;5.77;;;;;;;11.94;92.66;96429.41;4986742;28;20188;-82
2022/10/03 04:51:12;;;;;;;6.80;5.63;;;;;;;11.95;92.59;96428.44;4992637;28;20800;-82
2022/10/03 04:53:50;;;;;;;6.53;5.93;;;;;;;11.94;92.26;96426.81;4992598;28;20195;-82
2022/10/03 04:56:34;;;;;;;8.17;6.10;;;;;;;11.96;91.75;96426.66;4992502;28;20219;-82
2022/10/03 04:59:08;;;;;;;7.23;5.10;;;;;;;11.99;91.35;96421.97;4992159;28;20294;-82
2022/10/03 05:01:45;;;;;;;6.23;5.30;;;;;;;11.96;91.55;96419.72;4991632;28;20198;-82
2022/10/03 05:04:26;;;;;;;7.63;6.00;;;;;;;11.99;91.05;96432.31;4992685;28;20207;-82
2022/10/03 05:07:05;;;;;;;7.00;5.57;;;;;;;11.99;91.01;96428.91;4992473;28;20195;-82
2022/10/03 05:09:40;;;;;;;6.60;6.00;;;;;;;11.97;90.55;96420.53;4986572;28;20203;-82
2022/10/03 05:12:14;;;;;;;8.53;6.00;;;;;;;11.93;91.41;96427.00;4991514;28;20203;-82
2022/10/03 05:15:01;;;;;;;7.40;6.00;;;;;;;11.93;90.63;96429.59;4993078;28;20214;-81
2022/10/03 05:17:37;;;;;;;7.87;6.00;;;;;;;11.94;90.43;96423.44;4993557;28;20583;-82
2022/10/03 05:20:20;;;;;;;6.67;5.97;;;;;;;11.95;89.98;96431.00;4993697;28;20199;-82
2022/10/03 05:22:56;;;;;;;6.67;5.60;;;;;;;11.89;90.30;96425.72;4994856;28;20218;-83
2022/10/03 05:25:34;;;;;;;6.67;6.00;;;;;;;11.91;89.95;96429.75;4992889;28;20222;-82
2022/10/03 05:28:10;;;;;;;6.57;5.83;;;;;;;11.92;90.46;96438.31;4993002;28;20218;-82
2022/10/03 05:30:44;;;;;;;6.60;5.60;;;;;;;11.93;89.97;96445.84;4987646;28;20199;-82
2022/10/03 05:33:21;;;;;;;5.73;4.57;;;;;;;12.01;100.00;96440.69;4992446;28;20294;-86
2022/10/03 05:36:04;;;;;;;6.90;4.20;;;;;;;12.44;100.00;96449.78;4990595;28;20219;-86
2022/10/03 05:38:59;;;;;;;6.13;4.03;;;;;;;12.85;95.98;96444.47;4985202;28;20211;-85
2022/10/03 05:41:30;;;;;;;4.63;4.23;;;;;;;13.14;90.15;96438.63;4961520;28;20599;-81
2022/10/03 05:44:04;;;;;;;5.13;4.63;;;;;;;13.07;84.39;96446.28;4991738;28;20200;-81
2022/10/03 05:46:41;;;;;;;5.27;4.77;;;;;;;12.84;83.41;96442.03;4986607;28;20219;-81
2022/10/03 05:49:27;;;;;;;6.13;5.37;;;;;;;12.67;84.48;96449.06;4992157;28;20200;-81
2022/10/03 05:52:15;;;;;;;5.90;5.13;;;;;;;12.54;85.06;96451.34;4991660;28;20199;-81
2022/10/03 05:55:03;;;;;;;8.40;5.17;;;;;;;12.49;85.45;96458.81;4987656;28;20191;-81
2022/10/03 05:58:15;;;;;;;5.97;5.37;;;;;;;12.37;85.54;96463.53;4986675;28;20202;-81
2022/10/03 06:01:00;;;;;;;6.43;5.07;;;;;;;12.29;86.30;96471.31;4991987;28;20196;-81
2022/10/03 06:03:51;;;;;;;6.10;5.03;;;;;;;12.17;86.52;96475.19;4991369;28;20629;-81
2022/10/03 06:06:25;;;;;;;5.63;5.13;;;;;;;12.09;87.07;96474.25;4990160;28;20215;-81
2022/10/03 06:09:19;;;;;;;5.63;5.13;;;;;;;12.08;87.25;96477.81;4991568;28;20208;-80
2022/10/03 06:12:06;;;;;;;6.13;5.00;;;;;;;12.01;87.91;96479.41;4989710;28;20440;-81
2022/10/03 06:14:45;;;;;;;5.87;5.10;;;;;;;12.01;88.19;96483.75;4990595;28;20290;-81
2022/10/03 06:17:45;;;;;;;5.87;5.10;;;;;;;12.06;88.20;96489.25;4990449;28;20227;-81
2022/10/03 06:20:38;;;;;;;7.33;5.60;;;;;;;12.08;87.96;96495.06;4985815;28;20249;-81
2022/10/03 06:23:23;;;;;;;5.40;4.90;;;;;;;12.07;88.15;96503.78;4991227;28;20195;-81
2022/10/03 06:26:14;;;;;;;6.27;4.97;;;;;;;12.03;88.49;96507.66;4987768;28;20219;-81
2022/10/03 06:29:02;;;;;;;6.90;5.43;;;;;;;12.02;89.17;96512.00;4986253;28;20246;-81
2022/10/03 06:32:04;;;;;;;6.27;5.03;;;;;;;12.02;88.98;96509.41;4991838;28;20199;-81
2022/10/03 06:35:14;;;;;;;7.17;5.30;;;;;;;12.02;89.31;96518.94;4991602;28;20199;-81
2022/10/03 06:38:09;;;;;;;7.90;5.10;;;;;;;12.11;88.91;96525.72;4989938;28;20232;-81
2022/10/03 06:41:11;;;;;;;5.77;5.17;;;;;;;12.12;89.36;96521.38;4985434;28;20200;-80
2022/10/03 06:43:47;;;;;;;5.63;5.13;;;;;;;12.13;89.71;96522.94;4985367;28;20725;-80
2022/10/03 06:46:32;;;;;;;6.67;5.33;;;;;;;12.05;90.00;96527.16;4991013;28;20250;-81
2022/10/03 06:49:31;;;;;;;5.43;4.90;;;;;;;12.03;90.50;96523.13;4989227;28;20219;-81
2022/10/03 06:52:24;;;;;;;6.97;5.20;;;;;;;12.08;91.10;96523.47;4987911;28;20200;-82
2022/10/03 06:55:28;;;;;;;7.90;5.30;;;;;;;12.14;90.93;96525.38;4986123;28;20302;-81
2022/10/03 06:58:24;;;;;;;5.47;4.97;;;;;;;12.20;91.18;96535.06;4990696;28;20195;-81
2022/10/03 07:01:13;;;;;;;6.33;5.27;;;;;;;12.24;90.95;96526.03;4986279;28;20196;-81
2022/10/03 07:04:13;;;;;;;6.50;5.77;;;;;;;12.20;91.40;96535.06;4987280;28;20207;-81
2022/10/03 07:06:58;;;;;;;5.50;5.00;;;;;;;12.10;91.58;96535.25;4948359;28;20227;-80
2022/10/03 07:10:06;;;;;;;7.73;5.83;;;;;;;12.18;92.17;96538.75;4988809;28;20672;-81
2022/10/03 07:12:56;;;;;;;6.23;5.63;;;;;;;12.24;92.73;96540.72;4967281;28;20544;-81
2022/10/03 07:15:45;;;;;;;6.30;5.70;;;;;;;12.31;92.26;96539.91;4989097;28;20224;-81
2022/10/03 07:19:00;;;;;;;9.20;5.90;;;;;;;12.29;93.11;96538.44;4988013;28;20219;-81
2022/10/03 07:22:12;;;;;;;8.37;6.37;;;;;;;12.31;94.36;96534.72;4988785;28;20259;-81
2022/10/03 07:25:12;;;;;;;8.20;6.40;;;;;;;12.36;94.37;96537.59;4987331;28;20195;-82
2022/10/03 07:27:54;;;;;;;6.87;6.17;;;;;;;12.43;94.29;96542.94;4975044;28;20200;-83
2022/10/03 07:30:22;;;;;;;6.93;6.23;;;;;;;12.47;94.31;96546.81;4993265;28;20210;-84
2022/10/03 07:33:33;;;;;;;7.40;6.57;;;;;;;12.49;94.90;96555.22;4993883;28;20202;-86
2022/10/03 07:39:54;;;;;;;8.00;6.43;;;;;;;12.54;94.61;96558.09;4992202;28;20242;-81
2022/10/03 07:42:40;;;;;;;8.23;7.20;;;;;;;12.58;95.42;96561.97;4993924;28;20199;-81
2022/10/03 07:45:33;;;;;;;8.50;6.20;;;;;;;12.57;95.74;96555.16;4991464;28;20611;-81
2022/10/03 07:48:28;;;;;;;8.63;6.33;;;;;;;12.62;95.53;96560.66;4994909;28;20431;-81
2022/10/03 07:51:12;;;;;;;7.93;7.10;;;;;;;12.68;95.55;96562.59;4994047;28;20204;-82
2022/10/03 07:54:06;;;;;;;9.40;7.03;;;;;;;12.68;95.08;96572.13;4994323;28;20306;-81
2022/10/03 07:57:11;;;;;;;8.83;7.07;;;;;;;12.71;95.93;96572.56;4994249;28;20338;-81
2022/10/03 08:00:08;;;;;;;7.77;6.70;;;;;;;12.75;95.14;96578.22;4994047;28;20703;-82
2022/10/03 08:03:02;;;;;;;7.87;6.63;;;;;;;12.76;94.36;96574.66;4995134;28;20211;-81
2022/10/03 08:05:46;;;;;;;8.87;7.00;;;;;;;12.71;96.11;96576.94;4993941;28;20219;-81
2022/10/03 08:08:37;;;;;;;8.20;6.67;;;;;;;12.72;93.83;96571.59;4987827;28;20203;-81
2022/10/03 08:11:24;;;;;;;21.13;17.73;;;;;;;12.68;94.99;96574.72;4972388;28;20211;-81
2022/10/03 08:14:10;;;;;;;16.57;14.83;;;;;;;12.67;95.29;96573.09;4986469;28;20277;-82
2022/10/03 08:17:06;;;;;;;12.17;9.13;;;;;;;12.59;99.15;96575.69;4994066;28;20651;-81
2022/10/03 08:19:52;;;;;;;9.27;8.17;;;;;;;12.58;99.52;96581.81;4994144;28;20215;-81
2022/10/03 08:22:43;;;;;;;8.10;7.10;;;;;;;12.69;97.58;96581.50;4994054;28;20202;-81
2022/10/03 08:25:29;;;;;;;8.77;6.93;;;;;;;12.64;98.58;96584.56;4993887;28;20227;-81
2022/10/03 08:28:23;;;;;;;10.43;7.20;;;;;;;12.70;98.15;96590.84;4993052;28;20211;-84
2022/10/03 08:31:13;;;;;;;9.43;7.23;;;;;;;12.70;98.55;96585.69;4963073;28;20211;-81
2022/10/03 08:33:54;;;;;;;8.83;7.63;;;;;;;12.70;98.44;96589.06;4993519;28;20196;-82
2022/10/03 08:36:49;;;;;;;13.63;7.13;;;;;;;12.70;96.39;96588.28;4993153;28;20223;-82
2022/10/03 08:39:39;;;;;;;10.20;7.53;;;;;;;12.71;96.91;96585.50;4993307;28;20228;-81
2022/10/03 08:42:36;;;;;;;47.37;42.10;;;;;;;12.67;98.52;96588.59;4993284;28;20239;-81
2022/10/03 08:45:34;;;;;;;28.23;23.63;;;;;;;12.77;97.49;96589.22;4993104;28;20611;-82
2022/10/03 08:48:49;;;;;;;20.37;17.87;;;;;;;12.80;96.84;96597.44;4993227;28;20208;-81
2022/10/03 08:51:52;;;;;;;11.00;8.97;;;;;;;12.79;95.63;96608.75;4992717;28;20240;-82
2022/10/03 08:54:43;;;;;;;12.07;8.13;;;;;;;12.82;96.15;96609.41;4993157;28;20209;-81
2022/10/03 08:57:37;;;;;;;11.03;8.50;;;;;;;12.82;97.04;96611.97;4950398;28;20667;-81
2022/10/03 09:00:16;;;;;;;8.63;7.73;;;;;;;12.84;95.60;96613.44;4987089;28;20299;-81
2022/10/03 09:03:31;;;;;;;12.93;8.20;;;;;;;12.96;94.96;96617.28;4992122;28;20199;-82
2022/10/03 09:06:34;;;;;;;16.47;8.57;;;;;;;13.04;94.60;96611.28;4991297;28;20230;-81
2022/10/03 09:09:16;;;;;;;9.33;8.07;;;;;;;13.08;95.78;96608.16;4986381;28;20214;-81
2022/10/03 09:12:02;;;;;;;10.43;7.77;;;;;;;13.12;96.30;96601.69;4991005;28;20195;-81
2022/10/03 09:15:00;;;;;;;12.17;8.57;;;;;;;13.24;94.70;96594.44;4991067;28;20658;-82
2022/10/03 09:17:57;;;;;;;14.73;8.77;;;;;;;13.45;92.12;96591.28;4979576;28;20663;-81
2022/10/03 09:20:46;;;;;;;14.67;9.07;;;;;;;13.81;93.94;96594.13;4991888;28;20219;-83
2022/10/03 09:23:50;;;;;;;12.93;9.87;;;;;;;14.09;91.89;96602.19;4987705;28;20207;-81
2022/10/03 09:26:46;;;;;;;13.13;9.60;;;;;;;14.27;88.93;96588.94;4991753;28;20247;-81
2022/10/03 09:29:42;;;;;;;9.70;6.90;;;;;;;14.34;86.36;96595.84;4979194;28;20195;-84
2022/10/03 09:32:42;;;;;;;8.83;7.13;;;;;;;14.60;84.67;96597.28;4978519;28;20291;-82
2022/10/03 09:35:57;;;;;;;9.82;6.50;;;;;;;14.45;85.94;96600.63;4992512;28;20254;-81
2022/10/03 09:38:44;;;;;;;9.23;6.93;;;;;;;14.36;87.58;96603.44;4988611;28;20200;-81
2022/10/03 09:41:39;;;;;;;7.18;6.25;;;;;;;14.29;87.53;96597.34;4986480;28;20223;-82
2022/10/03 09:44:33;;;;;;;7.13;5.93;;;;;;;14.09;86.68;96592.63;4986347;28;20211;-82
2022/10/03 09:47:22;;;;;;;9.05;6.47;;;;;;;14.06;86.64;96603.31;4991479;28;20206;-82
2022/10/03 09:50:20;;;;;;;8.70;6.47;;;;;;;13.97;88.58;96595.81;4992156;28;20565;-81
2022/10/03 09:53:16;;;;;;;10.33;6.10;;;;;;;14.10;88.44;96590.84;4990725;28;20206;-82
2022/10/03 09:56:02;;;;;;;8.33;5.83;;;;;;;14.31;87.32;96598.78;4990620;28;20227;-81
2022/10/03 09:59:04;;;;;;;7.27;5.57;;;;;;;14.41;82.65;96591.63;4990772;28;20200;-81
2022/10/03 10:01:39;;;;;;;15.45;11.07;;;;;;;14.37;83.05;96594.69;4982485;28;20195;-81
2022/10/03 10:04:45;;;;;;;9.00;6.28;;;;;;;14.38;82.58;96591.94;4986722;28;20206;-82
2022/10/03 10:07:44;;;;;;;7.35;4.80;;;;;;;14.48;82.90;96592.50;4959718;28;20207;-82
2022/10/03 10:10:42;;;;;;;10.25;5.60;;;;;;;14.52;83.48;96587.78;4985687;28;20726;-82
2022/10/03 10:13:21;;;;;;;5.95;4.88;;;;;;;14.72;81.71;96578.50;4990840;28;20195;-81
2022/10/03 10:16:20;;;;;;;9.63;4.78;;;;;;;15.25;82.02;96575.81;4990462;28;20211;-81
2022/10/03 10:19:27;;;;;;;6.93;4.68;;;;;;;15.21;81.06;96575.34;4990013;28;20211;-82
2022/10/03 10:22:27;;;;;;;4.63;4.15;;;;;;;15.08;78.47;96575.19;4989078;28;20578;-81
2022/10/03 10:25:23;;;;;;;6.10;4.40;;;;;;;14.89;76.97;96576.53;4922233;28;20223;-82
2022/10/03 10:28:19;;;;;;;6.82;4.25;;;;;;;14.93;78.50;96574.41;4989773;28;20198;-81
2022/10/03 10:31:13;;;;;;;5.13;4.40;;;;;;;15.02;78.79;96581.91;4988230;28;20204;-82
2022/10/03 10:34:12;;;;;;;6.50;4.20;;;;;;;15.14;80.73;96575.28;4980047;28;20238;-81
2022/10/03 10:37:20;;;;;;;6.20;4.10;;;;;;;15.33;77.41;96570.53;4989595;28;20600;-81
2022/10/03 10:40:08;;;;;;;5.78;3.75;;;;;;;15.62;77.31;96567.09;4990205;28;20223;-81
2022/10/03 10:43:30;;;;;;;5.43;3.50;;;;;;;15.89;73.28;96568.97;4990418;28;20277;-81
2022/10/03 10:46:19;;;;;;;5.93;3.50;;;;;;;16.04;73.53;96564.50;4989342;28;20223;-82
2022/10/03 10:49:27;;;;;;;5.40;3.38;;;;;;;16.04;73.17;96568.91;4989990;28;20486;-81
2022/10/03 10:52:28;;;;;;;6.18;3.33;;;;;;;15.86;70.72;96566.75;4986491;28;20202;-81
2022/10/03 10:55:27;;;;;;;5.30;3.72;;;;;;;15.61;71.02;96573.25;4989744;28;20227;-82
2022/10/03 10:58:30;;;;;;;5.65;3.90;;;;;;;15.67;72.53;96570.75;4984610;28;20676;-81
2022/10/03 11:01:28;;;;;;;5.65;3.92;;;;;;;15.88;71.57;96564.75;4991773;28;20245;-82
2022/10/03 11:04:23;;;;;;;6.20;3.38;;;;;;;16.04;71.08;96561.91;4992890;28;20679;-82
2022/10/03 11:07:11;;;;;;;5.30;3.28;;;;;;;16.20;70.25;96558.25;4958885;28;20227;-82
2022/10/03 11:09:56;;;;;;;4.60;3.38;;;;;;;16.18;68.07;96558.44;4994782;28;20224;-81
2022/10/03 11:13:05;;;;;;;5.60;3.25;;;;;;;16.05;68.39;96560.13;4989952;28;20203;-81
2022/10/03 11:16:10;;;;;;;6.60;3.47;;;;;;;15.99;67.77;96553.88;4942715;28;20235;-81
2022/10/03 11:19:17;;;;;;;4.15;3.15;;;;;;;16.06;67.60;96552.13;4961840;28;20200;-81
2022/10/03 11:22:41;;;;;;;4.78;3.13;;;;;;;16.12;68.37;96559.19;4967531;28;20195;-82
2022/10/03 11:25:36;;;;;;;3.78;2.90;;;;;;;16.23;66.82;96547.47;4987183;28;20223;-81
2022/10/03 11:28:50;;;;;;;4.63;2.67;;;;;;;16.32;61.91;96546.38;4992501;28;20203;-81
2022/10/03 11:31:49;;;;;;;7.47;3.22;;;;;;;16.30;70.70;96544.94;4988485;28;20207;-83
2022/10/03 11:34:56;;;;;;;7.15;3.40;;;;;;;16.49;70.67;96537.28;4954841;28;20206;-82
2022/10/03 11:37:36;;;;;;;5.65;3.40;;;;;;;16.77;67.72;96539.06;4992034;28;20621;-85
2022/10/03 11:40:21;;;;;;;4.75;3.35;;;;;;;16.90;69.47;96539.16;4992405;28;20484;-83
2022/10/03 11:42:58;;;;;;;6.75;3.50;;;;;;;16.82;64.17;96534.09;4991589;28;20207;-81
2022/10/03 11:45:32;;;;;;;6.85;3.15;;;;;;;16.97;66.93;96533.97;4992213;28;20300;-83
2022/10/03 11:48:31;;;;;;;4.97;2.80;;;;;;;17.18;62.21;96534.69;4991642;28;20194;-82
2022/10/03 11:51:03;;;;;;;5.05;2.78;;;;;;;17.18;63.26;96534.69;4981815;28;20200;-85
2022/10/03 11:53:40;;;;;;;4.43;3.35;;;;;;;17.38;65.18;96534.75;4992990;28;20211;-82
2022/10/03 11:56:20;;;;;;;3.58;2.78;;;;;;;17.40;60.38;96537.16;4991074;28;20215;-81
2022/10/03 11:58:59;;;;;;;4.63;2.92;;;;;;;17.19;64.82;96533.69;4990424;28;20635;-81
2022/10/03 12:01:36;;;;;;;5.47;2.85;;;;;;;17.31;65.04;96528.75;4987658;28;20215;-83
2022/10/03 12:04:11;;;;;;;4.55;3.00;;;;;;;17.41;62.26;96526.56;4984822;28;20629;-81
2022/10/03 12:09:55;;;;;;;5.90;2.83;;;;;;;17.77;58.68;96526.25;4986168;28;20201;-81
2022/10/03 12:12:34;;;;;;;4.70;2.97;;;;;;;18.00;59.38;96519.88;4987032;28;20223;-85
2022/10/03 12:15:13;;;;;;;13.88;3.70;;;;;;;18.14;59.50;96518.88;4988241;28;20231;-82
2022/10/03 12:17:47;;;;;;;7.07;3.33;;;;;;;18.07;54.78;96518.91;4997671;28;20204;-81
2022/10/03 12:20:21;;;;;;;4.13;2.30;;;;;;;18.18;54.78;96513.06;4995529;28;20899;-81
2022/10/03 12:22:52;;;;;;;4.40;2.75;;;;;;;18.36;56.02;96511.66;5000319;28;20202;-81
2022/10/03 12:25:22;;;;;;;2.92;2.45;;;;;;;18.39;53.40;96508.66;4999353;28;20222;-80
2022/10/03 12:27:59;;;;;;;3.75;2.88;;;;;;;18.52;52.37;96508.63;4998301;28;20236;-80
2022/10/03 12:30:31;;;;;;;5.65;2.55;;;;;;;18.53;53.44;96502.41;4998220;28;20198;-79
2022/10/03 12:33:13;;;;;;;4.85;2.70;;;;;;;18.24;55.55;96503.66;4993427;28;20199;-85
2022/10/03 12:35:49;;;;;;;5.80;2.83;;;;;;;17.89;56.79;96503.06;4990412;28;20222;-80
2022/10/03 12:38:33;;;;;;;4.28;2.85;;;;;;;17.41;59.66;96512.72;4992254;28;20210;-80
2022/10/03 12:41:16;;;;;;;4.35;3.13;;;;;;;17.23;61.41;96506.28;4992818;28;20247;-80
2022/10/03 12:44:03;;;;;;;4.50;2.92;;;;;;;17.10;61.85;96510.63;4994516;28;20209;-84
2022/10/03 12:46:37;;;;;;;4.30;3.17;;;;;;;16.90;61.03;96502.75;4989063;28;20215;-83
2022/10/03 12:49:07;;;;;;;5.07;3.03;;;;;;;16.76;62.94;96501.84;4990208;28;20214;-86
2022/10/03 12:51:51;;;;;;;5.53;2.90;;;;;;;16.73;65.46;96504.06;4995515;28;20214;-87
2022/10/03 12:54:35;;;;;;;7.20;3.00;;;;;;;16.77;66.62;96498.25;4989187;28;20204;-84
2022/10/03 12:57:21;;;;;;;3.50;3.13;;;;;;;16.72;65.51;96497.25;4992327;28;20213;-83
2022/10/03 12:59:59;;;;;;;4.28;2.78;;;;;;;16.96;65.67;96495.94;4996371;28;20199;-83
2022/10/03 13:02:31;;;;;;;3.92;2.85;;;;;;;17.24;64.91;96494.88;4992174;28;20196;-82
2022/10/03 13:05:27;;;;;;;4.93;2.50;;;;;;;17.52;58.71;96493.91;4993058;28;20223;-84
2022/10/03 13:08:00;;;;;;;5.50;2.60;;;;;;;17.64;56.81;96486.34;4989953;28;20208;-83
2022/10/03 13:10:36;;;;;;;4.72;2.63;;;;;;;17.31;58.37;96486.28;4991456;28;20200;-82
2022/10/03 13:13:19;;;;;;;10.50;5.63;;;;;;;17.23;60.79;96489.84;4991822;28;20210;-83
2022/10/03 13:16:12;;;;;;;8.98;5.30;;;;;;;17.00;60.66;96481.56;4991792;28;20269;-85
2022/10/03 13:19:00;;;;;;;4.78;3.53;;;;;;;16.95;62.32;96484.72;4988306;28;20303;-81